RKSO/OSN METAR and TAF weather

Enter ICAO airport designator
Station Type Date Time Source
RKSO METAR 2020/12/01 20:58 UTC NOAA

RKSO 012058Z 00000KT 6SM HZ BKN060 OVC100 02/M07 A3046 RMK AO2A SLP319 T00181070 57010 $


Station Type Date Time Source
RKSO Decoded METAR 2020/12/01 20:58 UTC NOAA

Osan Ab, Korea, South (RKSO) 37-06N 127-02E 12M
Dec 01, 2020 - 03:58 PM EST / 2020.12.01 2058 UTC
Wind: Calm:0
Visibility: 6 mile(s):0
Sky conditions: overcast
Weather: haze
Temperature: 35.2 F (1.8 C)
Dew Point: 19.4 F (-7.0 C)
Relative Humidity: 52%
Pressure (altimeter): 30.46 in. Hg (1031 hPa)
Pressure tendency: 0.03 inches (1.0 hPa) lower than three hours ago
ob: RKSO 012058Z 00000KT 6SM HZ BKN060 OVC100 02/M07 A3046 RMK AO2A SLP319 T00181070 57010
cycle: 21

Station Type Date Time Source
RKSO TAF 2020/12/01 21:06 UTC NOAA

TAF RKSO 012100Z 0121/0303 36005KT 9000 HZ FEW025 BKN050 OVC100 600509 QNH3042INS
BECMG 0203/0204 32012KT 9999 NSW SCT050 SCT120 QNH3036INS
BECMG 0208/0209 35005KT 9000 HZ FEW070 SCT200 QNH3039INS
BECMG 0214/0215 04005KT 6000 BR FEW040 SCT180 WS020/34030KT QNH3036INS
BECMG 0223/0224 35009KT 9000 HZ FEW060 510709 QNH3030INS
BECMG 0301/0302 32012G18KT 9999 NSW SKC 510507 QNH3039INS TX08/0205Z TNM02/0220Z

Example: see airport list